createdAt,value
2019-05-20T00:01:17.839Z,81.40
2019-05-20T00:03:46.831Z,82.70
2019-05-20T00:06:14.774Z,83.30
2019-05-20T00:08:42.662Z,83.50
2019-05-20T00:11:10.610Z,84.10
2019-05-20T00:13:38.545Z,83.00
2019-05-20T00:16:06.502Z,83.50
2019-05-20T00:18:34.423Z,83.20
2019-05-20T00:21:02.413Z,83.70
2019-05-20T00:23:30.362Z,84.00
2019-05-20T00:25:58.230Z,84.30
2019-05-20T00:28:26.238Z,84.70
2019-05-20T00:30:54.077Z,84.80
2019-05-20T00:33:22.035Z,84.50
2019-05-20T00:35:51.729Z,85.00
2019-05-20T00:38:19.752Z,85.40
2019-05-20T00:40:47.673Z,85.70
2019-05-20T00:43:15.590Z,86.50
2019-05-20T00:45:43.511Z,86.70
2019-05-20T00:48:11.388Z,87.40
2019-05-20T00:50:39.257Z,88.00
2019-05-20T00:53:07.333Z,88.20
2019-05-20T00:55:38.584Z,88.30
2019-05-20T00:58:06.518Z,87.80
2019-05-20T01:00:34.542Z,87.00
2019-05-20T01:03:02.451Z,86.00
2019-05-20T01:05:30.345Z,85.80
2019-05-20T01:07:58.266Z,85.80
2019-05-20T01:10:26.125Z,86.00
2019-05-20T01:12:54.044Z,84.80
2019-05-20T01:15:21.981Z,83.80
2019-05-20T01:17:49.879Z,82.60
2019-05-20T01:20:18.224Z,81.70
2019-05-20T01:22:46.189Z,81.50
2019-05-20T01:25:14.156Z,81.00
2019-05-20T01:27:42.019Z,80.80
2019-05-20T01:30:10.662Z,80.10
2019-05-20T01:32:38.569Z,79.70
2019-05-20T01:35:06.771Z,78.80
2019-05-20T01:37:34.777Z,79.70
2019-05-20T01:40:02.709Z,80.10
2019-05-20T01:42:30.719Z,81.10
2019-05-20T01:44:58.564Z,80.60
2019-05-20T01:47:26.485Z,80.30
2019-05-20T01:49:54.660Z,81.50
2019-05-20T01:52:22.532Z,80.30
2019-05-20T01:54:50.452Z,81.00
2019-05-20T01:57:18.402Z,81.00
2019-05-20T01:59:46.449Z,80.40
2019-05-20T02:02:14.403Z,79.40
2019-05-20T02:04:42.274Z,80.30
2019-05-20T02:07:10.176Z,81.40
2019-05-20T02:09:38.214Z,82.00
2019-05-20T02:12:06.129Z,82.60
2019-05-20T02:14:39.390Z,82.50
2019-05-20T02:17:07.277Z,81.40
2019-05-20T02:19:35.171Z,81.20
2019-05-20T02:22:03.080Z,79.80
2019-05-20T02:24:31.009Z,79.60
2019-05-20T02:26:58.957Z,79.30
2019-05-20T02:29:26.864Z,79.90
2019-05-20T02:31:54.690Z,80.00
2019-05-20T02:34:22.576Z,79.30
2019-05-20T02:36:50.473Z,79.30
2019-05-20T02:39:18.405Z,79.10
2019-05-20T02:41:46.296Z,78.40
2019-05-20T02:44:14.287Z,79.60
2019-05-20T02:46:42.298Z,81.00
2019-05-20T02:49:10.272Z,81.40
2019-05-20T02:51:38.156Z,82.10
2019-05-20T02:54:06.203Z,81.80
2019-05-20T02:56:34.205Z,82.90
2019-05-20T02:59:02.582Z,83.00
2019-05-20T03:01:30.441Z,83.70
2019-05-20T03:04:10.578Z,84.00
2019-05-20T03:06:28.371Z,84.20
2019-05-20T03:08:56.283Z,84.00
2019-05-20T03:11:24.195Z,84.40
2019-05-20T03:13:52.465Z,85.00
2019-05-20T03:16:21.553Z,86.00
2019-05-20T03:18:49.547Z,86.30
2019-05-20T03:21:17.484Z,86.40
2019-05-20T03:23:45.323Z,86.50
2019-05-20T03:26:13.328Z,85.90
2019-05-20T03:28:41.213Z,84.80
2019-05-20T03:31:09.123Z,83.70
2019-05-20T03:33:37.107Z,83.00
2019-05-20T03:36:04.994Z,82.40
2019-05-20T03:38:32.872Z,82.40
2019-05-20T03:41:00.749Z,82.40
2019-05-20T03:43:28.593Z,82.60
2019-05-20T03:45:56.488Z,82.20
2019-05-20T03:48:24.373Z,81.40
2019-05-20T03:50:52.295Z,81.40
2019-05-20T03:53:20.240Z,80.70
2019-05-20T03:55:48.177Z,80.10
2019-05-20T03:58:16.108Z,80.60
2019-05-20T04:00:46.015Z,80.30
2019-05-20T04:03:14.425Z,78.90
2019-05-20T04:05:42.457Z,78.20
2019-05-20T04:08:10.462Z,77.00
2019-05-20T04:10:38.505Z,75.90
2019-05-20T04:13:06.666Z,75.80
2019-05-20T04:15:34.590Z,74.60
2019-05-20T04:18:02.513Z,73.10
2019-05-20T04:20:31.638Z,71.80
2019-05-20T04:22:59.610Z,72.20
2019-05-20T04:25:27.629Z,71.50
2019-05-20T04:27:55.572Z,73.20
2019-05-20T04:30:23.470Z,72.80
2019-05-20T04:32:51.459Z,72.20
2019-05-20T04:35:22.715Z,70.90
2019-05-20T04:37:49.324Z,71.30
2019-05-20T04:40:17.483Z,71.40
2019-05-20T04:42:45.422Z,70.70
2019-05-20T04:45:13.484Z,71.20
2019-05-20T04:47:41.421Z,69.80
2019-05-20T04:50:09.762Z,68.60
2019-05-20T04:52:37.655Z,68.40
2019-05-20T04:55:05.669Z,67.60
2019-05-20T04:57:34.527Z,66.90
2019-05-20T05:00:03.124Z,66.60
2019-05-20T05:02:32.195Z,66.10
2019-05-20T05:05:00.086Z,65.80
2019-05-20T05:07:27.960Z,65.10
2019-05-20T05:09:55.901Z,65.30
2019-05-20T05:12:24.921Z,64.70
2019-05-20T05:14:52.719Z,63.90
2019-05-20T05:17:20.654Z,64.40
2019-05-20T05:19:48.507Z,63.90
2019-05-20T05:22:16.468Z,64.30
2019-05-20T05:24:44.367Z,64.90
2019-05-20T05:27:12.303Z,64.60
2019-05-20T05:29:40.132Z,64.70
2019-05-20T05:32:08.029Z,64.20
2019-05-20T05:34:35.859Z,63.40
2019-05-20T05:37:03.722Z,61.90
2019-05-20T05:39:31.613Z,62.60
2019-05-20T05:41:59.491Z,62.60
2019-05-20T05:44:27.477Z,63.20
2019-05-20T05:46:55.724Z,63.10
2019-05-20T05:49:23.580Z,61.80
2019-05-20T05:51:51.534Z,61.60
2019-05-20T05:54:20.400Z,62.00
2019-05-20T05:56:48.378Z,62.40
2019-05-20T05:59:16.321Z,61.90
2019-05-20T06:01:44.203Z,61.60
2019-05-20T06:04:12.058Z,61.40
2019-05-20T06:06:39.933Z,60.70
2019-05-20T06:09:07.851Z,61.40
2019-05-20T06:11:35.705Z,61.30
2019-05-20T06:14:03.527Z,61.80
2019-05-20T06:16:36.345Z,62.40
2019-05-20T06:19:01.124Z,62.00
2019-05-20T06:21:29.022Z,62.40
2019-05-20T06:23:56.908Z,61.80
2019-05-20T06:26:24.702Z,60.60
2019-05-20T06:28:52.673Z,58.80
2019-05-20T06:31:20.511Z,59.30
2019-05-20T06:33:48.341Z,59.40
2019-05-20T06:36:26.550Z,59.00
2019-05-20T06:38:56.241Z,59.70
2019-05-20T06:41:24.070Z,59.90
2019-05-20T06:43:51.949Z,60.60
2019-05-20T06:46:19.853Z,60.70
2019-05-20T06:48:47.686Z,61.00
2019-05-20T06:51:15.505Z,60.80
2019-05-20T06:53:43.397Z,60.70
2019-05-20T06:56:11.267Z,61.20
2019-05-20T06:58:39.123Z,60.80
2019-05-20T07:01:07.047Z,59.80
2019-05-20T07:03:34.947Z,58.90
2019-05-20T07:06:02.833Z,60.00
2019-05-20T07:08:30.705Z,60.50
2019-05-20T07:10:58.552Z,59.30
2019-05-20T07:13:26.511Z,57.50
2019-05-20T07:15:54.392Z,56.80
2019-05-20T07:18:22.351Z,56.00
2019-05-20T07:20:50.261Z,54.90
2019-05-20T07:23:18.248Z,55.10
2019-05-20T07:25:46.281Z,55.00
2019-05-20T07:28:14.234Z,54.20
2019-05-20T07:30:42.141Z,54.90
2019-05-20T07:33:09.983Z,54.70
2019-05-20T07:35:37.871Z,53.40
2019-05-20T07:38:05.814Z,52.40
2019-05-20T07:40:33.716Z,52.30
2019-05-20T07:43:03.527Z,51.50
2019-05-20T07:45:34.545Z,51.30
2019-05-20T07:48:03.939Z,51.50
2019-05-20T07:50:34.294Z,51.30
2019-05-20T07:53:02.293Z,52.00
2019-05-20T07:55:36.094Z,52.60
2019-05-20T07:58:07.736Z,52.50
2019-05-20T08:00:36.388Z,52.30
2019-05-20T08:03:04.618Z,52.30
2019-05-20T08:05:33.603Z,51.40
2019-05-20T08:08:01.663Z,51.30
2019-05-20T08:10:29.519Z,52.10
2019-05-20T08:12:57.580Z,52.10
2019-05-20T08:15:25.558Z,52.60
2019-05-20T08:17:53.939Z,53.00
2019-05-20T08:20:22.358Z,51.90
2019-05-20T08:22:50.215Z,50.90
2019-05-20T08:25:18.290Z,50.50
2019-05-20T08:27:46.221Z,49.90
2019-05-20T08:30:17.075Z,49.40
2019-05-20T08:32:44.966Z,49.30
2019-05-20T08:35:12.980Z,48.30
2019-05-20T08:37:45.860Z,48.80
2019-05-20T08:40:10.615Z,49.90
2019-05-20T08:42:38.502Z,49.10
2019-05-20T08:45:06.718Z,49.60
2019-05-20T08:47:34.663Z,48.30
2019-05-20T08:50:06.890Z,49.00
2019-05-20T08:52:33.426Z,48.20
2019-05-20T08:55:01.655Z,46.40
2019-05-20T08:57:30.416Z,47.30
2019-05-20T08:59:58.476Z,46.40
2019-05-20T09:02:26.430Z,46.20
2019-05-20T09:04:54.270Z,47.80
2019-05-20T09:07:22.130Z,47.30
2019-05-20T09:09:50.029Z,48.40
2019-05-20T09:12:17.878Z,48.30
2019-05-20T09:14:45.785Z,47.60
2019-05-20T09:17:13.734Z,47.20
2019-05-20T09:19:41.617Z,47.00
2019-05-20T09:22:09.589Z,47.20
2019-05-20T09:24:37.545Z,46.40
2019-05-20T09:27:05.486Z,45.60
2019-05-20T09:29:33.373Z,43.30
2019-05-20T09:32:01.493Z,44.30
2019-05-20T09:34:30.263Z,43.30
2019-05-20T09:36:58.166Z,43.10
2019-05-20T09:39:26.000Z,43.00
2019-05-20T09:41:53.843Z,43.90
2019-05-20T09:44:21.720Z,43.30
2019-05-20T09:46:49.544Z,44.10
2019-05-20T09:49:17.378Z,45.70
2019-05-20T09:51:45.290Z,46.20
2019-05-20T09:54:13.238Z,46.30
2019-05-20T09:56:41.118Z,46.40
2019-05-20T09:59:09.091Z,47.50
2019-05-20T10:01:40.308Z,47.20
2019-05-20T10:04:06.970Z,48.70
2019-05-20T10:06:35.823Z,48.90
2019-05-20T10:09:05.379Z,49.80
2019-05-20T10:11:33.693Z,50.60
2019-05-20T10:14:01.534Z,49.20
2019-05-20T10:16:29.410Z,50.00
2019-05-20T10:18:57.285Z,49.70
2019-05-20T10:21:25.160Z,49.30
2019-05-20T10:23:53.026Z,49.20
2019-05-20T10:26:21.024Z,49.40
2019-05-20T10:28:48.903Z,52.20
2019-05-20T10:31:16.766Z,56.10
2019-05-20T10:33:44.697Z,62.10
2019-05-20T10:36:12.566Z,65.00
2019-05-20T10:38:56.774Z,66.80
2019-05-20T10:41:11.520Z,67.70
2019-05-20T10:43:39.528Z,69.00
2019-05-20T10:46:07.429Z,71.30
2019-05-20T10:48:35.311Z,73.90
2019-05-20T10:51:03.177Z,75.90
2019-05-20T10:53:31.171Z,76.90
2019-05-20T10:55:59.302Z,77.80
2019-05-20T10:58:27.561Z,78.50
2019-05-20T11:01:02.639Z,77.20
2019-05-20T11:03:25.267Z,77.40
2019-05-20T11:05:53.200Z,75.60
2019-05-20T11:08:21.201Z,74.80
2019-05-20T11:10:49.027Z,72.90
2019-05-20T11:13:16.979Z,70.30
2019-05-20T11:15:44.916Z,68.20
2019-05-20T11:18:12.860Z,68.10
2019-05-20T11:20:40.710Z,65.50
2019-05-20T11:23:09.383Z,64.60
2019-05-20T11:25:37.273Z,65.60
2019-05-20T11:28:05.327Z,65.50
2019-05-20T11:30:33.196Z,67.30
2019-05-20T11:33:01.065Z,63.90
2019-05-20T11:35:29.053Z,67.10
2019-05-20T11:37:56.956Z,70.00
2019-05-20T11:40:26.008Z,66.10
2019-05-20T11:42:53.871Z,67.00
2019-05-20T11:45:21.758Z,65.00
2019-05-20T11:47:49.735Z,64.80
2019-05-20T11:50:17.765Z,65.20
2019-05-20T11:52:45.642Z,63.50
2019-05-20T11:55:13.816Z,61.10
2019-05-20T11:57:42.236Z,60.40
2019-05-20T12:00:13.835Z,61.00
2019-05-20T12:02:41.860Z,60.10
2019-05-20T12:05:10.408Z,61.70
2019-05-20T12:07:39.314Z,59.30
2019-05-20T12:10:08.250Z,58.10
2019-05-20T12:12:36.345Z,59.40
2019-05-20T12:15:05.992Z,60.40
2019-05-20T12:17:34.491Z,61.10
2019-05-20T12:20:03.941Z,61.00
2019-05-20T12:22:32.446Z,61.10
2019-05-20T12:25:00.311Z,61.30
2019-05-20T12:27:28.176Z,59.80
2019-05-20T12:29:56.237Z,60.50
2019-05-20T12:32:24.111Z,60.80
2019-05-20T12:34:53.044Z,60.00
2019-05-20T12:37:20.927Z,60.50
2019-05-20T12:40:05.524Z,60.10
2019-05-20T12:42:18.982Z,59.90
2019-05-20T12:44:46.956Z,59.00
2019-05-20T12:47:14.797Z,59.40
2019-05-20T12:49:42.678Z,58.80
2019-05-20T12:52:10.550Z,58.40
2019-05-20T12:54:44.673Z,59.80
2019-05-20T12:57:12.616Z,58.50
2019-05-20T12:59:40.474Z,59.00
2019-05-20T13:02:08.462Z,60.90
2019-05-20T13:04:36.327Z,63.30
2019-05-20T13:07:05.302Z,63.90
2019-05-20T13:09:33.218Z,63.10
2019-05-20T13:12:01.343Z,62.20
2019-05-20T13:14:29.187Z,62.30
2019-05-20T13:16:57.059Z,63.40
2019-05-20T13:19:24.932Z,64.30
2019-05-20T13:21:52.852Z,64.30
2019-05-20T13:24:20.769Z,63.80
2019-05-20T13:26:48.661Z,65.00
2019-05-20T13:29:16.581Z,66.00
2019-05-20T13:31:44.430Z,66.80
2019-05-20T13:34:12.316Z,69.50
2019-05-20T13:36:40.188Z,71.60
2019-05-20T13:39:10.999Z,73.60
2019-05-20T13:41:38.885Z,76.10
2019-05-20T13:44:06.733Z,75.80
2019-05-20T13:46:34.693Z,77.10
2019-05-20T13:49:04.124Z,76.20
2019-05-20T13:51:32.093Z,75.10
2019-05-20T13:53:59.984Z,75.40
2019-05-20T13:56:29.114Z,76.00
2019-05-20T13:58:57.005Z,76.20
2019-05-20T14:01:24.850Z,76.00
2019-05-20T14:03:56.724Z,77.50
2019-05-20T14:06:22.572Z,77.30
2019-05-20T14:08:50.625Z,74.40
2019-05-20T14:11:33.601Z,74.60
2019-05-20T14:13:48.302Z,74.40
2019-05-20T14:16:16.174Z,74.00
2019-05-20T14:18:44.069Z,73.70
2019-05-20T14:21:12.160Z,74.80
2019-05-20T14:23:40.251Z,75.90
2019-05-20T14:26:08.281Z,75.80
2019-05-20T14:28:37.197Z,76.50
2019-05-20T14:31:06.206Z,76.90
2019-05-20T14:33:34.490Z,77.50
2019-05-20T14:36:02.604Z,75.40
2019-05-20T14:38:31.465Z,74.70
2019-05-20T14:40:59.473Z,73.50
2019-05-20T14:43:27.695Z,73.70
2019-05-20T14:45:56.938Z,74.20
2019-05-20T14:48:24.969Z,74.50
2019-05-20T14:50:52.918Z,73.90
2019-05-20T14:53:20.896Z,73.30
2019-05-20T14:55:49.175Z,74.30
2019-05-20T14:58:17.954Z,73.80
2019-05-20T15:00:45.966Z,74.00
2019-05-20T15:03:13.939Z,75.60
2019-05-20T15:05:41.876Z,76.10
2019-05-20T15:08:09.888Z,76.10
2019-05-20T15:10:37.839Z,76.90
2019-05-20T15:13:05.783Z,77.10
2019-05-20T15:15:34.390Z,77.20
2019-05-20T15:18:02.378Z,75.60
2019-05-20T15:20:31.172Z,77.60
2019-05-20T15:22:59.134Z,76.10
2019-05-20T15:25:27.180Z,77.30
2019-05-20T15:27:56.193Z,77.20
2019-05-20T15:30:25.805Z,76.90
2019-05-20T15:32:54.880Z,76.60
2019-05-20T15:35:24.170Z,77.00
2019-05-20T15:37:52.126Z,75.00
2019-05-20T15:40:24.047Z,75.30
2019-05-20T15:42:50.940Z,75.30
2019-05-20T15:45:19.325Z,74.20
2019-05-20T15:47:47.371Z,74.70
2019-05-20T15:50:16.351Z,77.10
2019-05-20T15:52:44.360Z,77.60
2019-05-20T15:55:13.135Z,78.60
2019-05-20T15:57:41.432Z,78.60
2019-05-20T16:00:10.442Z,80.20
2019-05-20T16:02:38.538Z,79.00
2019-05-20T16:05:06.904Z,75.80
2019-05-20T16:07:34.945Z,76.60
2019-05-20T16:10:03.018Z,74.20
2019-05-20T16:12:34.275Z,75.30
2019-05-20T16:15:01.341Z,75.60
2019-05-20T16:17:29.389Z,74.70
2019-05-20T16:19:57.749Z,75.30
2019-05-20T16:22:28.261Z,75.30
2019-05-20T16:24:56.219Z,76.60
2019-05-20T16:27:24.655Z,75.30
2019-05-20T16:30:06.176Z,73.70
2019-05-20T16:32:25.056Z,73.10
2019-05-20T16:34:53.412Z,73.70
2019-05-20T16:37:21.417Z,73.20
2019-05-20T16:39:49.441Z,73.20
2019-05-20T16:42:17.672Z,73.30
2019-05-20T16:44:45.840Z,72.70
2019-05-20T16:47:14.511Z,73.80
2019-05-20T16:49:42.517Z,74.80
2019-05-20T16:52:11.346Z,74.30
2019-05-20T16:54:39.396Z,74.90
2019-05-20T16:57:07.336Z,74.10
2019-05-20T16:59:35.272Z,73.80
2019-05-20T17:02:03.577Z,75.00
2019-05-20T17:04:31.618Z,75.80
2019-05-20T17:06:59.698Z,75.00
2019-05-20T17:09:27.687Z,74.20
2019-05-20T17:11:55.709Z,73.20
2019-05-20T17:14:23.987Z,74.60
2019-05-20T17:16:51.890Z,73.90
2019-05-20T17:19:19.738Z,73.60
2019-05-20T17:21:47.643Z,73.30
2019-05-20T17:24:15.611Z,73.60
2019-05-20T17:26:43.552Z,73.10
2019-05-20T17:29:11.451Z,73.30
2019-05-20T17:31:39.574Z,73.50
2019-05-20T17:34:07.619Z,73.10
2019-05-20T17:36:35.718Z,73.80
2019-05-20T17:39:04.981Z,74.00
2019-05-20T17:41:33.124Z,74.00
2019-05-20T17:44:01.063Z,74.00
2019-05-20T17:46:29.135Z,74.00
2019-05-20T17:48:57.082Z,74.20
2019-05-20T17:51:25.111Z,74.50
2019-05-20T17:53:53.022Z,74.60
2019-05-20T17:56:20.919Z,74.50
2019-05-20T17:58:48.921Z,75.70
2019-05-20T18:01:16.827Z,76.00
2019-05-20T18:03:44.702Z,76.10
2019-05-20T18:06:12.611Z,76.60
2019-05-20T18:08:43.829Z,76.80
2019-05-20T18:11:11.752Z,77.10
2019-05-20T18:13:40.812Z,77.50
2019-05-20T18:16:08.878Z,77.20
2019-05-20T18:18:36.754Z,77.20
2019-05-20T18:21:04.648Z,78.20
2019-05-20T18:23:32.553Z,77.50
2019-05-20T18:26:03.481Z,77.80
2019-05-20T18:28:30.204Z,77.20
2019-05-20T18:30:59.114Z,77.20
2019-05-20T18:33:26.989Z,77.20
2019-05-20T18:35:54.915Z,78.20
2019-05-20T18:38:22.775Z,79.40
2019-05-20T18:40:50.705Z,81.20
2019-05-20T18:43:18.620Z,82.00
2019-05-20T18:45:46.653Z,82.90
2019-05-20T18:48:14.639Z,85.40
2019-05-20T18:50:42.861Z,86.10
2019-05-20T18:53:12.086Z,87.50
2019-05-20T18:55:40.234Z,88.40
2019-05-20T18:58:08.258Z,90.00
2019-05-20T19:00:36.184Z,89.60
2019-05-20T19:03:04.112Z,89.80
2019-05-20T19:05:32.109Z,90.50
2019-05-20T19:08:00.020Z,90.90
2019-05-20T19:10:28.285Z,90.70
2019-05-20T19:12:56.214Z,90.40
2019-05-20T19:15:24.278Z,91.00
2019-05-20T19:17:52.204Z,91.10
2019-05-20T19:20:22.950Z,90.70
2019-05-20T19:22:50.121Z,91.00
2019-05-20T19:25:18.072Z,91.00
2019-05-20T19:27:46.129Z,91.70
2019-05-20T19:30:14.951Z,91.80
2019-05-20T19:32:53.012Z,91.90
2019-05-20T19:35:21.052Z,92.50
2019-05-20T19:37:49.023Z,92.70
2019-05-20T19:40:17.100Z,93.00
2019-05-20T19:42:45.236Z,93.10
2019-05-20T19:45:13.588Z,93.20
2019-05-20T19:47:41.520Z,93.10
2019-05-20T19:50:10.064Z,92.20
2019-05-20T19:52:38.112Z,92.30
2019-05-20T19:55:06.439Z,92.60
2019-05-20T19:57:34.383Z,93.00
2019-05-20T20:00:02.538Z,92.80
2019-05-20T20:02:30.619Z,92.60
2019-05-20T20:04:58.528Z,92.90
2019-05-20T20:07:28.786Z,92.90
2019-05-20T20:09:56.285Z,92.80
2019-05-20T20:12:24.418Z,93.50
2019-05-20T20:14:52.435Z,93.40
2019-05-20T20:17:20.336Z,93.60
2019-05-20T20:19:48.248Z,93.00
2019-05-20T20:22:16.133Z,93.50
2019-05-20T20:24:44.110Z,94.30
2019-05-20T20:27:12.046Z,93.50
2019-05-20T20:29:39.939Z,94.30
2019-05-20T20:32:07.867Z,94.00
2019-05-20T20:34:35.842Z,94.70
2019-05-20T20:37:03.808Z,95.40
2019-05-20T20:39:34.314Z,95.60
2019-05-20T20:42:01.576Z,95.80
2019-05-20T20:44:29.332Z,96.00
2019-05-20T20:46:57.169Z,96.50
2019-05-20T20:49:25.112Z,96.80
2019-05-20T20:51:59.181Z,97.10
2019-05-20T20:54:27.096Z,97.30
2019-05-20T20:56:55.005Z,97.10
2019-05-20T20:59:22.966Z,97.20
2019-05-20T21:02:03.200Z,97.00
2019-05-20T21:04:32.112Z,96.80
2019-05-20T21:07:00.163Z,96.50
2019-05-20T21:09:28.103Z,96.70
2019-05-20T21:11:56.051Z,96.30
2019-05-20T21:14:27.521Z,96.30
2019-05-20T21:16:55.574Z,96.80
2019-05-20T21:19:24.651Z,96.20
2019-05-20T21:21:52.635Z,96.20
2019-05-20T21:24:25.375Z,96.20
2019-05-20T21:26:57.735Z,96.40
2019-05-20T21:29:25.942Z,95.80
2019-05-20T21:31:53.976Z,95.70
2019-05-20T21:34:21.933Z,95.70
2019-05-20T21:36:50.623Z,95.40
2019-05-20T21:39:18.543Z,95.00
2019-05-20T21:41:46.549Z,94.90
2019-05-20T21:44:14.429Z,95.10
2019-05-20T21:47:09.795Z,94.70
2019-05-20T21:49:38.731Z,94.80
2019-05-20T21:52:07.763Z,94.60
2019-05-20T21:54:35.714Z,94.70
2019-05-20T21:57:03.604Z,94.30
2019-05-20T21:59:31.440Z,94.20
2019-05-20T22:01:59.348Z,93.90
2019-05-20T22:04:31.121Z,93.90
2019-05-20T22:06:59.137Z,94.30
2019-05-20T22:09:27.248Z,93.60
2019-05-20T22:11:55.121Z,93.60
2019-05-20T22:14:23.156Z,93.60
2019-05-20T22:16:50.971Z,93.70
2019-05-20T22:19:19.077Z,93.60
2019-05-20T22:21:56.594Z,93.40
2019-05-20T22:24:24.513Z,93.10
2019-05-20T22:26:52.487Z,93.20
2019-05-20T22:29:20.367Z,92.90
2019-05-20T22:31:48.286Z,93.10
2019-05-20T22:34:16.180Z,93.20
2019-05-20T22:36:44.195Z,93.30
2019-05-20T22:39:12.152Z,93.50
2019-05-20T22:41:40.057Z,93.90
2019-05-20T22:44:08.988Z,94.00
2019-05-20T22:46:36.847Z,94.20
2019-05-20T22:49:04.861Z,94.30
2019-05-20T22:51:32.710Z,94.50
2019-05-20T22:54:00.890Z,94.70
2019-05-20T22:56:28.781Z,95.10
2019-05-20T22:58:56.815Z,95.40
2019-05-20T23:01:24.714Z,95.60
2019-05-20T23:03:56.382Z,95.50
2019-05-20T23:06:22.451Z,95.50
2019-05-20T23:08:50.355Z,95.90
2019-05-20T23:11:18.294Z,96.10
2019-05-20T23:13:46.289Z,96.20
2019-05-20T23:16:14.178Z,96.50
2019-05-20T23:18:42.122Z,96.60
2019-05-20T23:21:10.087Z,97.00
2019-05-20T23:23:38.055Z,97.30
2019-05-20T23:26:15.234Z,97.50
2019-05-20T23:28:43.219Z,97.40
2019-05-20T23:31:11.924Z,97.70
2019-05-20T23:33:39.829Z,97.70
2019-05-20T23:36:07.724Z,97.70
2019-05-20T23:38:35.622Z,97.90
2019-05-20T23:41:03.643Z,97.90
2019-05-20T23:43:31.696Z,98.40
2019-05-20T23:45:59.860Z,98.60
2019-05-20T23:48:27.798Z,98.60
2019-05-20T23:50:55.714Z,98.80
2019-05-20T23:53:23.613Z,98.90
2019-05-20T23:55:51.571Z,98.70
2019-05-20T23:58:19.592Z,98.80
